Taxiarchis S — SY6961 — position and weather

sailwx.info

Track history (hours):
 
Tides and Currents Weather Stations Pressure Air Temp Water Temp Dewpoint Dewpoint Depression Visibility Wind Speed Wind Dir Waves Ship Positions

Taxiarchis S

Last reported at 2018-Jun-22 16:30 UTC. Time now 2018-Jun-22 16:51 UTC.
Position N 37°13' E 023°54'.

Length 77 m; draft 5 m.

Type: Cargo ship. MMSI: 237989800.

Date/timePositionNaut miles runAvg speedWind from/ knotsBaromVisibWave heightAir tempDewpointWater temp
2018-Jun-22 16:30N 37°13' E 023°54'5 8.8
2018-Jun-22 15:59N 37°09' E 023°58'8 8.7
2018-Jun-22 15:06N 37°03' E 024°04'1 8.7
2018-Jun-22 15:01N 37°03' E 024°05'4 8.6
2018-Jun-22 14:31N 36°59' E 024°09'4 8.8
2018-Jun-22 14:01N 36°56' E 024°12'5 9.1
2018-Jun-22 13:30N 36°52' E 024°16'  
2018-Jun-17 04:45N 37°48' E 025°34'3 8.6
2018-Jun-17 04:27N 37°46' E 025°37'20 8.7
2018-Jun-17 02:08N 37°31' E 025°54'  
2018-Jun-14 01:50N 37°10' E 025°48'3 9.0
2018-Jun-14 01:31N 37°11' E 025°45'10 8.7
2018-Jun-14 00:21N 37°15' E 025°33'3 8.3
2018-Jun-14 00:00N 37°16' E 025°29'4 8.3
2018-Jun-13 23:30N 37°17' E 025°24'4 8.2
2018-Jun-13 23:00N 37°19' E 025°20'4 8.6
2018-Jun-13 22:31N 37°20' E 025°15'4 8.6
2018-Jun-13 22:01N 37°22' E 025°10'4 8.5
2018-Jun-13 21:30N 37°25' E 025°06'7 8.4
2018-Jun-13 20:40N 37°30' E 024°59'1 8.5
2018-Jun-13 20:31N 37°30' E 024°58'5 8.7
2018-Jun-13 19:58N 37°33' E 024°53'4 8.4
2018-Jun-13 19:30N 37°36' E 024°49'42 8.6
2018-Jun-13 14:39N 38°03' E 024°10'4 8.6
2018-Jun-13 14:09N 38°07' E 024°07'2 0.1
2018-Jun-12 22:07N 38°09' E 024°05'710.2
2018-Jun-12 21:23N 38°01' E 024°06'26 6.7
2018-Jun-12 17:31N 37°39' E 023°49'1 7.8
2018-Jun-12 17:20N 37°39' E 023°47'3 9.0
2018-Jun-12 17:00N 37°40' E 023°44'  
Track history (hours):
 
Tides and Currents Weather Stations Pressure Air Temp Water Temp Dewpoint Dewpoint Depression Visibility Wind Speed Wind Dir Waves Ship Positions

Taxiarchis S

Last reported at 2018-Jun-22 16:30 UTC. Time now 2018-Jun-22 16:51 UTC.
Position N 37°13' E 023°54'.

Length 77 m; draft 5 m.

Type: Cargo ship. MMSI: 237989800.

Date/timePositionNaut miles runAvg speedWind from/ knotsBaromVisibWave heightAir tempDewpointWater temp
2018-Jun-22 16:30N 37°13' E 023°54'5 8.8
2018-Jun-22 15:59N 37°09' E 023°58'8 8.7
2018-Jun-22 15:06N 37°03' E 024°04'1 8.7
2018-Jun-22 15:01N 37°03' E 024°05'4 8.6
2018-Jun-22 14:31N 36°59' E 024°09'4 8.8
2018-Jun-22 14:01N 36°56' E 024°12'5 9.1
2018-Jun-22 13:30N 36°52' E 024°16'  
2018-Jun-17 04:45N 37°48' E 025°34'3 8.6
2018-Jun-17 04:27N 37°46' E 025°37'20 8.7
2018-Jun-17 02:08N 37°31' E 025°54'  
2018-Jun-14 01:50N 37°10' E 025°48'3 9.0
2018-Jun-14 01:31N 37°11' E 025°45'10 8.7
2018-Jun-14 00:21N 37°15' E 025°33'3 8.3
2018-Jun-14 00:00N 37°16' E 025°29'4 8.3
2018-Jun-13 23:30N 37°17' E 025°24'4 8.2
2018-Jun-13 23:00N 37°19' E 025°20'4 8.6
2018-Jun-13 22:31N 37°20' E 025°15'4 8.6
2018-Jun-13 22:01N 37°22' E 025°10'4 8.5
2018-Jun-13 21:30N 37°25' E 025°06'7 8.4
2018-Jun-13 20:40N 37°30' E 024°59'1 8.5
2018-Jun-13 20:31N 37°30' E 024°58'5 8.7
2018-Jun-13 19:58N 37°33' E 024°53'4 8.4
2018-Jun-13 19:30N 37°36' E 024°49'42 8.6
2018-Jun-13 14:39N 38°03' E 024°10'4 8.6
2018-Jun-13 14:09N 38°07' E 024°07'2 0.1
2018-Jun-12 22:07N 38°09' E 024°05'710.2
2018-Jun-12 21:23N 38°01' E 024°06'26 6.7
2018-Jun-12 17:31N 37°39' E 023°49'1 7.8
2018-Jun-12 17:20N 37°39' E 023°47'3 9.0
2018-Jun-12 17:00N 37°40' E 023°44'  

Dump ship's entire track history